Alyeska Resort Wx Sites
Hourly Roundup from Summit Site
ALYSUM 1/20/2017
Click Here to View Graph!

        DATE  TIME   Air  Wind  Wind  Wind   Rel  BATT Solar
                    Temp   Spd   Dir  Gust  Hum%  Volt Watts
                      F   AVG   AVG   MAX   AVG   AVG    M

   1/20/2017 10:00    16    13    90    20    70 12.68  1.35
   1/20/2017 09:00    16    12    95    19    67 12.69  0.00
   1/20/2017 08:00    16    11    89    19    60 12.69  0.00
   1/20/2017 07:00    15     9   112    16    58 12.70  0.00
   1/20/2017 06:00    15     6   108    14    58 12.71  0.00
   1/20/2017 05:00    13     1   158     4    57 12.73  0.00
   1/20/2017 04:00    13     4   120     7    52 12.75  0.00
   1/20/2017 03:00    12     3   123     6    48 12.77  0.00
   1/20/2017 02:00    12     2    88     5    36 12.80  0.00
   1/20/2017 01:00    11     2   266     5    26 12.82  0.00
   1/19/2017 24:00    11     4   297     7    22 12.85  0.00
   1/19/2017 23:00    10     4   282     7    24 12.88  0.00
   1/19/2017 22:00     9     7   277    11    27 12.92  0.00
   1/19/2017 21:00     8     6   228    11    41 12.96  0.00
   1/19/2017 20:00     8     6   232    10    48 13.01  0.00
   1/19/2017 19:00     9     9   252    14    49 13.08  0.00
   1/19/2017 18:00     8     9   296    12    50 13.22  0.08
   1/19/2017 17:00     6     6   276    10    50 14.07  5.62
   1/19/2017 16:00     4     4   226     8    51  0.00 54.95
   1/19/2017 15:00     3     4   228    10    52  0.00117.80
   1/19/2017 14:00     3     5   236    13    52  0.00150.70
   1/19/2017 13:00     4     8   215    19    48  0.00146.00
   1/19/2017 12:00     3     7   220    19    49 14.54 77.76
   1/19/2017 11:00     1    10   293    18    51 12.85 11.78


Click Here to View Graph!